Time;durP1;ratioP1;P1;durP2;ratioP2;P2;SDS_P1;SDS_P2;PMS_P1;PMS_P2;Temp;Humidity;BMP_temperature;BMP_pressure;BME280_temperature;BME280_humidity;BME280_pressure;Samples;Min_cycle;Max_cycle;Signal;HPM_P1;HPM_P2
2023/10/10 00:00:47;;;;;;;19.65;12.57;;;;;;;12.66;100.00;102054.09;4883194;29;20037;-76
2023/10/10 00:02:58;;;;;;;18.17;12.13;;;;;;;12.69;100.00;102056.72;4880917;29;20538;-76
2023/10/10 00:05:33;;;;;;;19.83;11.90;;;;;;;12.66;100.00;102056.75;4881629;29;20040;-76
2023/10/10 00:08:00;;;;;;;17.42;12.27;;;;;;;12.62;100.00;102049.69;4890178;29;20356;-76
2023/10/10 00:10:27;;;;;;;14.93;11.18;;;;;;;12.61;100.00;102057.69;4869493;29;20120;-76
2023/10/10 00:12:53;;;;;;;16.70;11.80;;;;;;;12.55;100.00;102053.31;4893224;29;20028;-76
2023/10/10 00:15:24;;;;;;;17.38;12.38;;;;;;;12.55;100.00;102060.41;4876479;29;20116;-76
2023/10/10 00:17:50;;;;;;;15.95;11.63;;;;;;;12.53;100.00;102055.09;4878776;29;20040;-76
2023/10/10 00:20:21;;;;;;;19.52;13.18;;;;;;;12.52;100.00;102055.16;4862306;29;20388;-76
2023/10/10 00:22:48;;;;;;;15.32;12.18;;;;;;;12.51;100.00;102061.34;4862739;29;20132;-75
2023/10/10 00:25:24;;;;;;;24.33;12.73;;;;;;;12.52;100.00;102050.69;4879544;29;20041;-76
2023/10/10 00:27:55;;;;;;;22.42;13.93;;;;;;;12.56;100.00;102052.44;4864274;29;20093;-76
2023/10/10 00:30:22;;;;;;;22.73;15.00;;;;;;;12.60;100.00;102058.59;4879605;29;20052;-76
2023/10/10 00:32:50;;;;;;;21.98;14.20;;;;;;;12.59;100.00;102054.19;4891418;29;20033;-76
2023/10/10 00:35:17;;;;;;;22.20;14.05;;;;;;;12.57;100.00;102051.53;4863043;29;20041;-76
2023/10/10 00:37:44;;;;;;;28.17;15.07;;;;;;;12.57;100.00;102054.19;4862519;29;20037;-76
2023/10/10 00:40:15;;;;;;;29.70;14.57;;;;;;;12.57;100.00;102050.66;4877333;29;20037;-76
2023/10/10 00:42:43;;;;;;;25.17;15.90;;;;;;;12.59;100.00;102051.53;4862199;29;20145;-76
2023/10/10 00:45:10;;;;;;;20.80;14.15;;;;;;;12.55;100.00;102058.63;4876987;29;20340;-76
2023/10/10 00:47:44;;;;;;;26.80;16.23;;;;;;;12.52;100.00;102050.69;4862195;29;20049;-75
2023/10/10 00:50:19;;;;;;;50.42;16.25;;;;;;;12.53;100.00;102056.91;4862667;29;20049;-76
2023/10/10 00:52:51;;;;;;;23.25;14.65;;;;;;;12.51;100.00;102045.41;4847585;29;20191;-76
2023/10/10 00:55:24;;;;;;;36.28;16.27;;;;;;;12.53;100.00;102048.91;4896851;29;20028;-76
2023/10/10 00:57:58;;;;;;;27.25;16.30;;;;;;;12.54;100.00;102048.91;4897155;29;20029;-76
2023/10/10 01:00:29;;;;;;;25.90;17.05;;;;;;;12.52;100.00;102041.88;4896861;29;20041;-75
2023/10/10 01:03:00;;;;;;;26.70;16.83;;;;;;;12.47;100.00;102034.81;4880768;29;20041;-76
2023/10/10 01:05:39;;;;;;;32.80;18.05;;;;;;;12.52;100.00;102024.13;4887655;29;20032;-76
2023/10/10 01:08:07;;;;;;;29.25;17.20;;;;;;;12.53;100.00;102025.00;4890693;29;20053;-75
2023/10/10 01:10:37;;;;;;;50.50;16.35;;;;;;;12.52;100.00;102025.91;4896887;29;20429;-75
2023/10/10 01:13:03;;;;;;;43.03;16.87;;;;;;;12.54;100.00;102029.44;4897682;29;20048;-75
2023/10/10 01:15:35;;;;;;;23.30;15.65;;;;;;;12.51;100.00;102025.00;4853516;29;20308;-75
2023/10/10 01:18:00;;;;;;;30.70;15.90;;;;;;;12.51;100.00;102030.31;4880663;29;20047;-75
2023/10/10 01:20:44;;;;;;;56.95;17.75;;;;;;;12.51;100.00;102021.47;4886918;29;20132;-75
2023/10/10 01:23:10;;;;;;;23.42;16.52;;;;;;;12.53;100.00;102020.56;4897025;29;20041;-75
2023/10/10 01:28:13;;;;;;;25.65;18.02;;;;;;;12.51;100.00;102006.41;4870120;29;20032;-75
2023/10/10 01:33:24;;;;;;;31.52;17.02;;;;;;;12.60;100.00;101997.47;4888713;29;20040;-75
2023/10/10 01:35:55;;;;;;;25.23;18.17;;;;;;;12.60;100.00;101995.69;4894358;29;20393;-75
2023/10/10 01:38:38;;;;;;;27.90;16.98;;;;;;;12.62;100.00;101999.22;4876882;29;20100;-75
2023/10/10 01:41:15;;;;;;;31.40;16.60;;;;;;;12.63;100.00;102000.09;4893866;29;20526;-74
2023/10/10 01:43:46;;;;;;;28.35;17.33;;;;;;;12.63;100.00;101992.13;4861651;29;20369;-75
2023/10/10 01:46:19;;;;;;;28.70;17.17;;;;;;;12.62;100.00;101987.72;4885910;29;20052;-75
2023/10/10 01:48:45;;;;;;;31.58;16.65;;;;;;;12.60;100.00;101987.72;4875062;29;20448;-75
2023/10/10 01:51:15;;;;;;;55.88;15.82;;;;;;;12.60;100.00;101986.84;4877561;29;20144;-75
2023/10/10 01:53:41;;;;;;;78.95;17.27;;;;;;;12.62;100.00;101987.72;4887184;29;20040;-75
2023/10/10 01:56:07;;;;;;;32.78;17.83;;;;;;;12.62;100.00;101985.94;4896917;29;20044;-75
2023/10/10 01:58:36;;;;;;;32.75;16.40;;;;;;;12.60;100.00;101976.22;4862987;29;20032;-75
2023/10/10 02:01:13;;;;;;;27.45;17.40;;;;;;;12.61;100.00;101973.56;4879889;29;20044;-75
2023/10/10 02:03:40;;;;;;;23.00;17.60;;;;;;;12.59;100.00;101974.47;4869135;29;20104;-75
2023/10/10 02:06:09;;;;;;;34.35;19.77;;;;;;;12.61;100.00;101972.66;4879761;29;20036;-75
2023/10/10 02:08:35;;;;;;;27.90;18.98;;;;;;;12.57;100.00;101971.81;4896361;29;20051;-75
2023/10/10 02:11:02;;;;;;;30.30;18.05;;;;;;;12.54;100.00;101966.53;4864175;29;20044;-75
2023/10/10 02:13:33;;;;;;;36.55;18.17;;;;;;;12.53;100.00;101967.44;4865394;29;20028;-75
2023/10/10 02:16:01;;;;;;;28.40;19.45;;;;;;;12.54;100.00;101955.06;4860926;29;20414;-75
2023/10/10 02:21:43;;;;;;;25.83;18.13;;;;;;;12.57;100.00;101960.31;4846275;29;20064;-75
2023/10/10 02:26:52;;;;;;;21.85;18.25;;;;;;;12.54;100.00;101955.91;4877437;29;20053;-75
2023/10/10 02:29:33;;;;;;;24.75;18.08;;;;;;;12.53;100.00;101943.50;4860680;29;20173;-75
2023/10/10 02:32:19;;;;;;;;;;;;;;;12.61;100.00;101951.38;4860712;29;20489;-74
2023/10/10 02:35:14;;;;;;;32.78;18.67;;;;;;;12.52;100.00;101951.53;4877406;29;20352;-74
2023/10/10 02:37:45;;;;;;;21.00;17.23;;;;;;;12.46;100.00;101947.13;4848262;29;20051;-75
2023/10/10 02:40:16;;;;;;;25.73;18.85;;;;;;;12.43;100.00;101947.19;4840859;29;20041;-75
2023/10/10 02:42:50;;;;;;;26.52;18.55;;;;;;;12.42;100.00;101946.31;4860808;29;20484;-74
2023/10/10 02:45:17;;;;;;;26.00;17.73;;;;;;;12.37;100.00;101942.84;4843565;29;20537;-75
2023/10/10 02:47:52;;;;;;;24.98;18.42;;;;;;;12.39;100.00;101942.81;4845700;29;20041;-74
2023/10/10 02:50:39;;;;;;;25.27;18.40;;;;;;;12.35;100.00;101941.09;4860618;29;20052;-74
2023/10/10 02:53:07;;;;;;;30.17;20.35;;;;;;;12.35;100.00;101941.97;4863740;29;20037;-75
2023/10/10 02:55:41;;;;;;;24.08;18.58;;;;;;;12.32;100.00;101939.34;4852068;29;20068;-75
2023/10/10 02:58:20;;;;;;;23.67;18.35;;;;;;;12.29;100.00;101935.84;4872110;29;20044;-75
2023/10/10 03:00:48;;;;;;;22.77;17.10;;;;;;;12.28;100.00;101940.28;4862095;29;20495;-75
2023/10/10 03:03:24;;;;;;;26.95;19.25;;;;;;;12.26;100.00;101939.41;4844923;29;20374;-75
2023/10/10 03:05:50;;;;;;;25.88;18.63;;;;;;;12.22;100.00;101940.34;4877398;29;20056;-75
2023/10/10 03:11:00;;;;;;;23.90;18.08;;;;;;;12.18;100.00;101941.28;4860655;29;20048;-75
2023/10/10 03:27:10;;;;;;;25.95;18.88;;;;;;;12.07;100.00;101938.75;4847239;29;20053;-74
2023/10/10 03:29:37;;;;;;;25.17;18.63;;;;;;;12.13;100.00;101936.00;4862802;29;20488;-74
2023/10/10 03:35:04;;;;;;;29.92;20.10;;;;;;;12.16;100.00;101930.66;4863303;29;20404;-74
2023/10/10 03:37:39;;;;;;;27.52;19.48;;;;;;;12.13;100.00;101937.78;4865670;29;20048;-74
2023/10/10 05:24:00;;;;;;;37.45;25.60;;;;;;;11.95;100.00;101881.34;4853248;29;20048;-78
2023/10/10 05:26:30;;;;;;;38.10;25.45;;;;;;;11.93;100.00;101879.59;4890539;29;20065;-79
2023/10/10 05:28:57;;;;;;;37.92;26.30;;;;;;;11.92;100.00;101872.53;4880263;29;20036;-79
2023/10/10 05:31:23;;;;;;;41.22;25.05;;;;;;;11.90;100.00;101863.72;4884313;29;20124;-79
2023/10/10 05:33:50;;;;;;;39.72;25.60;;;;;;;11.92;100.00;101868.13;4859939;29;20037;-78
2023/10/10 05:36:18;;;;;;;35.75;24.35;;;;;;;11.93;100.00;101871.63;4885428;29;20040;-78
2023/10/10 05:38:45;;;;;;;38.15;25.70;;;;;;;11.92;100.00;101859.25;4866154;29;20369;-78
2023/10/10 05:41:11;;;;;;;41.40;25.85;;;;;;;11.90;100.00;101867.25;4887384;29;20427;-78
2023/10/10 05:43:36;;;;;;;40.42;25.48;;;;;;;11.90;100.00;101858.41;4883041;29;20049;-78
2023/10/10 05:46:06;;;;;;;42.80;25.67;;;;;;;11.88;100.00;101873.47;4857538;29;20064;-78
2023/10/10 05:48:32;;;;;;;38.95;25.08;;;;;;;11.86;100.00;101867.25;4877278;29;20041;-78
2023/10/10 05:51:03;;;;;;;39.78;26.23;;;;;;;11.84;100.00;101865.50;4868022;29;20041;-78
2023/10/10 05:53:32;;;;;;;36.65;24.80;;;;;;;11.86;100.00;101873.44;4880880;29;20048;-78
2023/10/10 05:55:58;;;;;;;35.95;25.25;;;;;;;11.87;100.00;101869.03;4849601;29;20143;-78
2023/10/10 05:58:25;;;;;;;37.38;24.67;;;;;;;11.87;100.00;101866.38;4867477;29;20551;-78
2023/10/10 06:00:54;;;;;;;35.35;23.13;;;;;;;11.88;100.00;101865.50;4880103;29;20052;-78
2023/10/10 06:03:21;;;;;;;37.28;24.02;;;;;;;11.87;100.00;101861.97;4861450;29;20037;-78
2023/10/10 06:05:49;;;;;;;35.72;22.13;;;;;;;11.82;100.00;101864.66;4878450;29;20041;-79
2023/10/10 06:08:15;;;;;;;32.92;22.80;;;;;;;11.86;100.00;101869.91;4874139;29;20045;-78
2023/10/10 06:10:42;;;;;;;29.75;20.38;;;;;;;11.86;100.00;101862.81;4871362;29;20045;-78
2023/10/10 06:13:10;;;;;;;33.88;19.70;;;;;;;11.84;100.00;101865.50;4880302;29;20048;-78
2023/10/10 06:15:36;;;;;;;33.10;20.60;;;;;;;11.90;100.00;101864.59;4885257;29;20147;-78
2023/10/10 06:18:11;;;;;;;34.10;21.45;;;;;;;11.92;100.00;101861.91;4879466;29;20043;-78
2023/10/10 06:20:41;;;;;;;30.15;20.48;;;;;;;11.92;100.00;101851.28;4879830;29;20044;-78
2023/10/10 06:23:08;;;;;;;38.65;21.77;;;;;;;11.95;100.00;101857.47;4857960;29;20067;-78
2023/10/10 06:25:35;;;;;;;30.08;20.67;;;;;;;11.97;100.00;101860.97;4835019;29;20051;-78
2023/10/10 06:28:00;;;;;;;28.70;19.83;;;;;;;11.99;100.00;101864.50;4846606;29;20044;-78
2023/10/10 06:30:26;;;;;;;32.05;19.77;;;;;;;12.01;100.00;101859.16;4845589;29;20105;-78
2023/10/10 06:33:01;;;;;;;30.95;18.67;;;;;;;12.02;100.00;101859.16;4864947;29;20037;-78
2023/10/10 06:35:28;;;;;;;32.42;19.27;;;;;;;12.06;100.00;101857.31;4871959;29;20044;-78
2023/10/10 06:37:54;;;;;;;32.28;19.40;;;;;;;12.06;100.00;101852.00;4854484;29;20049;-78
2023/10/10 06:40:28;;;;;;;31.25;19.50;;;;;;;12.10;100.00;101855.53;4860665;29;20032;-78
2023/10/10 06:42:56;;;;;;;29.02;17.63;;;;;;;12.12;100.00;101851.97;4882805;29;20436;-78
2023/10/10 06:45:26;;;;;;;25.58;18.17;;;;;;;12.14;100.00;101851.91;4859084;29;20093;-78
2023/10/10 06:47:54;;;;;;;28.00;18.55;;;;;;;12.18;100.00;101849.22;4876631;29;20036;-78
2023/10/10 06:50:22;;;;;;;26.52;18.27;;;;;;;12.19;100.00;101853.63;4860320;29;20043;-78
2023/10/10 06:52:52;;;;;;;33.28;17.50;;;;;;;12.21;100.00;101854.47;4876753;29;20406;-78
2023/10/10 06:55:22;;;;;;;26.67;16.85;;;;;;;12.25;100.00;101850.03;4876930;29;20048;-78
2023/10/10 06:58:01;;;;;;;27.13;17.48;;;;;;;12.29;100.00;101854.41;4844985;29;20033;-77
2023/10/10 07:00:52;;;;;;;26.90;17.60;;;;;;;12.29;100.00;101848.19;4852913;29;20451;-77
2023/10/10 07:03:30;;;;;;;25.65;16.83;;;;;;;12.32;100.00;101848.19;4860867;29;20536;-78
2023/10/10 07:05:56;;;;;;;23.52;15.80;;;;;;;12.38;100.00;101846.28;4881672;29;20084;-77
2023/10/10 07:08:25;;;;;;;26.73;16.08;;;;;;;12.43;100.00;101843.56;4864388;29;20129;-78
2023/10/10 07:10:56;;;;;;;33.30;16.80;;;;;;;12.47;100.00;101842.66;4864454;29;20136;-78
2023/10/10 07:13:29;;;;;;;22.60;14.90;;;;;;;12.52;100.00;101843.47;4880798;29;20192;-77
2023/10/10 07:15:58;;;;;;;30.90;16.52;;;;;;;12.56;100.00;101842.53;4865124;29;20392;-77
2023/10/10 07:18:24;;;;;;;29.23;14.05;;;;;;;12.60;100.00;101840.69;4880929;29;20219;-78
2023/10/10 07:21:04;;;;;;;29.85;16.52;;;;;;;12.64;100.00;101845.94;4863882;29;20123;-77
2023/10/10 07:23:37;;;;;;;30.53;16.83;;;;;;;12.69;100.00;101849.41;4862537;29;20543;-77
2023/10/10 07:26:05;;;;;;;22.55;15.15;;;;;;;12.74;100.00;101844.03;4881133;29;20060;-77
2023/10/10 07:28:37;;;;;;;26.38;16.85;;;;;;;12.77;100.00;101851.97;4880590;29;20386;-77
2023/10/10 07:31:03;;;;;;;28.58;16.27;;;;;;;12.78;100.00;101839.53;4849640;29;20052;-77
2023/10/10 07:33:37;;;;;;;27.65;17.42;;;;;;;12.85;100.00;101842.06;4864395;29;20045;-77
2023/10/10 07:36:06;;;;;;;24.70;16.65;;;;;;;12.89;100.00;101834.94;4864232;29;20135;-77
2023/10/10 07:38:35;;;;;;;26.05;17.50;;;;;;;12.92;100.00;101832.22;4864173;29;20077;-77
2023/10/10 07:41:04;;;;;;;23.85;16.42;;;;;;;13.00;100.00;101830.31;4881372;29;20071;-77
2023/10/10 07:43:34;;;;;;;25.65;16.20;;;;;;;13.04;100.00;101829.38;4875841;29;20079;-78
2023/10/10 07:46:21;;;;;;;28.35;17.95;;;;;;;13.08;100.00;101828.44;4880450;29;20049;-77
2023/10/10 07:48:53;;;;;;;27.10;15.98;;;;;;;13.11;100.00;101831.03;4863449;29;20515;-78
2023/10/10 07:51:28;;;;;;;31.35;16.77;;;;;;;13.16;100.00;101835.41;4863648;29;20037;-77
2023/10/10 07:54:10;;;;;;;33.72;16.75;;;;;;;13.19;100.00;101843.34;4863097;29;20055;-77
2023/10/10 07:56:44;;;;;;;21.77;15.88;;;;;;;13.26;100.00;101839.66;4865746;29;20076;-77
2023/10/10 07:59:14;;;;;;;21.27;15.45;;;;;;;13.34;100.00;101848.41;4879831;29;20101;-77
2023/10/10 08:01:43;;;;;;;27.83;15.52;;;;;;;13.43;100.00;101839.41;4863387;29;20040;-78
2023/10/10 08:04:12;;;;;;;30.10;17.50;;;;;;;13.47;100.00;101841.97;4879785;29;20041;-78
2023/10/10 08:06:38;;;;;;;28.85;16.60;;;;;;;13.51;100.00;101846.34;4879770;29;20112;-77
2023/10/10 08:11:41;;;;;;;29.63;17.58;;;;;;;13.63;100.00;101845.25;4878418;29;20048;-78
2023/10/10 08:14:10;;;;;;;30.08;17.08;;;;;;;13.69;100.00;101839.78;4874339;29;20429;-78
2023/10/10 08:16:38;;;;;;;31.25;17.00;;;;;;;13.74;100.00;101837.91;4880032;29;20049;-78
2023/10/10 08:19:15;;;;;;;31.55;17.73;;;;;;;13.85;100.00;101843.06;4861877;29;20120;-78
2023/10/10 08:21:49;;;;;;;26.77;18.00;;;;;;;13.93;100.00;101843.78;4875430;29;20045;-78
2023/10/10 08:24:15;;;;;;;33.85;17.70;;;;;;;14.00;100.00;101841.88;4861967;29;20552;-79
2023/10/10 08:26:41;;;;;;;29.45;16.45;;;;;;;14.07;100.00;101842.59;4879849;29;20251;-79
2023/10/10 08:29:07;;;;;;;28.75;17.90;;;;;;;14.14;100.00;101839.81;4848273;29;20135;-78
2023/10/10 08:31:33;;;;;;;24.77;16.77;;;;;;;14.22;100.00;101833.41;4879533;29;20505;-79
2023/10/10 08:33:59;;;;;;;28.67;17.50;;;;;;;14.27;100.00;101828.88;4862469;29;20379;-79
2023/10/10 08:36:24;;;;;;;25.13;17.23;;;;;;;14.31;100.00;101841.22;4863457;29;20041;-78
2023/10/10 08:38:51;;;;;;;28.58;15.85;;;;;;;14.34;100.00;101838.50;4847159;29;20048;-77
2023/10/10 08:41:21;;;;;;;25.05;16.63;;;;;;;14.37;100.00;101844.66;4862479;29;20048;-78
2023/10/10 08:43:53;;;;;;;29.20;16.48;;;;;;;14.40;100.00;101849.91;4879161;29;20424;-78
2023/10/10 08:46:30;;;;;;;28.05;16.40;;;;;;;14.45;100.00;101844.47;4862338;29;20528;-77
2023/10/10 08:49:00;;;;;;;26.35;15.63;;;;;;;14.49;100.00;101853.25;4879122;29;20065;-78
2023/10/10 08:51:32;;;;;;;24.37;15.47;;;;;;;14.55;100.00;101853.19;4879450;29;20109;-78
2023/10/10 08:54:02;;;;;;;22.55;14.80;;;;;;;14.58;100.00;101850.44;4861943;29;20480;-78
2023/10/10 08:56:37;;;;;;;23.48;14.70;;;;;;;14.66;100.00;101852.94;4847435;29;20371;-78
2023/10/10 08:59:03;;;;;;;26.30;16.27;;;;;;;14.72;100.00;101845.69;4879662;29;20127;-78
2023/10/10 09:01:35;;;;;;;27.23;16.00;;;;;;;14.83;100.00;101838.28;4878131;29;20030;-78
2023/10/10 09:04:05;;;;;;;25.90;15.10;;;;;;;14.92;100.00;101839.88;4876774;29;20366;-78
2023/10/10 09:06:58;;;;;;;25.17;15.25;;;;;;;15.02;100.00;101833.41;4875388;29;20041;-78
2023/10/10 09:09:34;;;;;;;23.35;15.38;;;;;;;15.10;100.00;101832.34;4860464;29;20132;-78
2023/10/10 09:12:03;;;;;;;28.95;15.40;;;;;;;15.17;100.00;101837.47;4883652;29;20041;-73
2023/10/10 09:14:51;;;;;;;23.50;15.25;;;;;;;15.27;100.00;101839.00;4863311;29;20465;-74
2023/10/10 09:17:40;;;;;;;23.30;14.00;;;;;;;15.37;100.00;101828.09;4862703;29;20060;-74
2023/10/10 09:20:22;;;;;;;26.85;14.82;;;;;;;15.46;100.00;101835.88;4856209;29;20037;-73
2023/10/10 09:22:52;;;;;;;22.08;14.38;;;;;;;15.56;100.00;101845.38;4847178;29;20033;-79
2023/10/10 09:25:25;;;;;;;23.98;14.45;;;;;;;15.68;100.00;101837.03;4860520;29;20063;-78
2023/10/10 09:28:08;;;;;;;25.98;14.95;;;;;;;15.78;100.00;101840.38;4843010;29;20042;-78
2023/10/10 09:30:49;;;;;;;23.92;13.60;;;;;;;15.87;100.00;101841.88;4879728;29;20029;-78
2023/10/10 09:36:08;;;;;;;25.38;13.10;;;;;;;15.97;100.00;101846.03;4885005;29;20048;-74
2023/10/10 09:38:36;;;;;;;23.33;13.80;;;;;;;16.02;100.00;101846.81;4861436;29;20041;-75
2023/10/10 09:41:26;;;;;;;23.27;13.57;;;;;;;16.08;100.00;101838.63;4878215;29;20045;-74
2023/10/10 09:49:40;;;;;;;26.20;14.13;;;;;;;16.56;96.04;101847.88;4878322;29;20037;-75
2023/10/10 10:03:55;;;;;;;19.27;12.25;;;;;;;17.07;91.62;101830.25;4877524;29;20053;-75
2023/10/10 10:06:53;;;;;;;19.98;12.75;;;;;;;17.22;90.91;101839.56;4869797;29;20072;-74
2023/10/10 10:09:32;;;;;;;22.92;12.15;;;;;;;17.31;91.04;101837.47;4864227;29;20107;-74
2023/10/10 10:12:33;;;;;;;22.67;12.07;;;;;;;17.54;91.05;101835.78;4877161;29;20041;-75
2023/10/10 10:15:20;;;;;;;18.52;11.20;;;;;;;17.64;87.64;101834.53;4864755;29;20040;-74
2023/10/10 10:18:13;;;;;;;19.65;12.13;;;;;;;17.63;86.83;101831.00;4877806;29;20093;-74
2023/10/10 10:21:28;;;;;;;19.55;11.63;;;;;;;17.66;87.17;101843.41;4873637;29;20096;-75
2023/10/10 10:23:33;;;;;;;18.67;11.27;;;;;;;17.69;87.56;101840.59;4870527;29;20081;-75
2023/10/10 10:26:08;;;;;;;24.98;12.75;;;;;;;17.77;87.97;101830.47;4878445;29;20056;-75
2023/10/10 10:28:37;;;;;;;18.05;11.80;;;;;;;18.02;89.79;101835.84;4843354;29;20453;-74
2023/10/10 10:31:16;;;;;;;32.83;12.70;;;;;;;18.27;87.41;101822.41;4879976;29;20505;-75
2023/10/10 10:34:05;;;;;;;20.80;11.40;;;;;;;18.51;88.04;101821.50;4876829;29;20105;-75
2023/10/10 10:36:43;;;;;;;23.15;11.65;;;;;;;18.63;83.95;101826.38;4876801;29;20044;-74
2023/10/10 10:39:20;;;;;;;20.83;11.20;;;;;;;18.74;83.33;101808.03;4865732;29;20036;-75
2023/10/10 10:41:55;;;;;;;19.75;11.80;;;;;;;18.87;81.49;101809.31;4876711;29;20037;-75
2023/10/10 10:44:45;;;;;;;16.95;10.75;;;;;;;19.09;83.29;101803.94;4882577;29;20045;-78
2023/10/10 10:47:31;;;;;;;19.00;11.10;;;;;;;19.30;81.15;101803.94;4876474;29;20668;-78
2023/10/10 10:50:04;;;;;;;16.00;9.90;;;;;;;19.51;78.39;101811.09;4825666;29;20364;-78
2023/10/10 10:52:43;;;;;;;16.75;10.35;;;;;;;19.60;78.25;101814.28;4881382;29;20065;-78
2023/10/10 10:55:23;;;;;;;18.50;10.10;;;;;;;19.77;80.76;101809.94;4861686;29;20417;-78
2023/10/10 10:58:05;;;;;;;21.25;9.52;;;;;;;19.93;76.82;101806.56;4879353;29;20349;-78
2023/10/10 11:01:07;;;;;;;15.95;10.05;;;;;;;20.06;76.73;101802.38;4877480;29;20136;-78
2023/10/10 11:03:37;;;;;;;17.48;9.07;;;;;;;20.23;73.03;101806.97;4845007;29;20403;-78
2023/10/10 11:06:09;;;;;;;15.20;9.23;;;;;;;20.35;72.19;101802.81;4879888;29;20037;-78
2023/10/10 11:16:56;;;;;;;15.75;8.98;;;;;;;21.01;72.31;101778.94;4870373;29;20117;-78
2023/10/10 11:21:54;;;;;;;19.23;8.70;;;;;;;21.24;69.94;101776.88;4880469;29;20371;-79
2023/10/10 11:24:29;;;;;;;15.50;8.82;;;;;;;21.37;67.21;101779.84;4870744;29;20056;-79
2023/10/10 11:29:47;;;;;;;18.00;9.38;;;;;;;21.69;69.05;101776.31;4868624;29;20040;-78
2023/10/10 11:32:14;;;;;;;;;;;;;;;21.80;71.36;101772.19;4876506;29;20029;-79
2023/10/10 11:34:46;;;;;;;14.00;8.38;;;;;;;21.94;65.87;101772.31;4876363;29;19937;-78
2023/10/10 11:37:17;;;;;;;17.48;8.70;;;;;;;22.03;65.69;101768.22;4859297;29;20489;-78
2023/10/10 11:39:57;;;;;;;17.08;9.00;;;;;;;21.97;63.67;101764.03;4859538;29;20353;-79
2023/10/10 11:42:27;;;;;;;14.20;8.52;;;;;;;22.02;62.59;101764.66;4859194;29;20052;-79
2023/10/10 11:45:06;;;;;;;17.27;8.32;;;;;;;21.94;62.79;101753.44;4876005;29;20041;-79
2023/10/10 11:47:42;;;;;;;15.88;8.82;;;;;;;21.97;62.64;101745.16;4876255;29;20061;-78
2023/10/10 11:50:11;;;;;;;15.35;8.05;;;;;;;22.02;61.22;101759.25;4861384;29;20513;-79
2023/10/10 11:52:50;;;;;;;16.58;8.65;;;;;;;22.19;63.18;101758.31;4846415;29;20049;-78
2023/10/10 11:55:20;;;;;;;15.63;8.43;;;;;;;22.39;61.96;101745.56;4863468;29;20040;-79
2023/10/10 11:57:48;;;;;;;14.50;8.70;;;;;;;22.54;59.96;101740.13;4879830;29;20048;-79
2023/10/10 12:00:21;;;;;;;17.90;8.48;;;;;;;22.58;59.96;101743.56;4863614;29;20308;-78
2023/10/10 12:02:48;;;;;;;19.27;8.65;;;;;;;22.70;60.05;101747.34;4879654;29;20072;-79
2023/10/10 12:07:58;;;;;;;;;;;;;;;23.17;64.43;101735.59;4880252;29;20413;-79
2023/10/10 12:13:12;;;;;;;17.52;7.82;;;;;;;23.56;59.65;101734.06;4862675;29;20049;-78
2023/10/10 12:15:44;;;;;;;14.05;7.57;;;;;;;23.72;59.06;101732.16;4847193;29;20112;-78
2023/10/10 12:18:10;;;;;;;12.55;8.25;;;;;;;23.71;55.50;101730.41;4879238;29;20061;-78
2023/10/10 12:20:42;;;;;;;12.18;7.60;;;;;;;23.74;58.21;101732.97;4879405;29;20041;-78
2023/10/10 12:23:09;;;;;;;15.68;8.48;;;;;;;23.76;55.61;101724.75;4877718;29;20052;-78
2023/10/10 12:25:37;;;;;;;17.27;8.85;;;;;;;23.95;56.96;101719.03;4862803;29;20109;-78
2023/10/10 12:28:06;;;;;;;17.75;8.45;;;;;;;23.79;55.16;101720.03;4862528;29;20053;-79
2023/10/10 12:30:31;;;;;;;14.57;9.02;;;;;;;23.81;57.69;101715.41;4879099;29;20392;-78
2023/10/10 12:32:57;;;;;;;20.30;8.70;;;;;;;23.72;55.01;101713.22;4862441;29;20052;-78
2023/10/10 12:35:25;;;;;;;22.75;8.57;;;;;;;23.85;55.43;101710.66;4879201;29;20036;-78
2023/10/10 12:38:01;;;;;;;16.20;8.30;;;;;;;24.08;57.58;101711.84;4879615;29;20037;-78
2023/10/10 12:40:29;;;;;;;13.40;7.35;;;;;;;24.48;54.32;101702.97;4879340;29;20033;-78
2023/10/10 12:42:55;;;;;;;15.85;7.60;;;;;;;24.43;52.15;101711.38;4879528;29;20260;-79
2023/10/10 12:45:20;;;;;;;19.20;7.55;;;;;;;24.41;54.62;101700.66;4862418;29;20131;-79
2023/10/10 12:47:48;;;;;;;14.75;7.20;;;;;;;24.43;53.29;101704.13;4879606;29;20128;-79
2023/10/10 12:50:14;;;;;;;14.77;7.88;;;;;;;24.45;53.87;101704.03;4879025;29;20413;-79
2023/10/10 12:52:45;;;;;;;14.07;7.18;;;;;;;24.49;52.45;101685.78;4862592;29;20049;-78
2023/10/10 12:55:11;;;;;;;15.05;6.72;;;;;;;24.71;52.97;101694.19;4879195;29;20033;-78
2023/10/10 12:57:38;;;;;;;13.18;6.72;;;;;;;25.16;54.18;101694.69;4862480;29;20040;-78
2023/10/10 13:00:24;;;;;;;12.15;6.82;;;;;;;25.04;49.27;101690.97;4862116;29;20207;-78
2023/10/10 13:02:53;;;;;;;15.68;6.85;;;;;;;25.31;54.28;101685.50;4861453;29;20494;-78
2023/10/10 13:05:26;;;;;;;16.00;7.10;;;;;;;25.70;52.16;101693.63;4879147;29;20041;-78
2023/10/10 13:07:55;;;;;;;13.98;6.88;;;;;;;25.67;51.72;101699.28;4862046;29;20033;-78
2023/10/10 13:10:28;;;;;;;10.98;6.00;;;;;;;25.59;49.12;101698.94;4847249;29;20049;-78
2023/10/10 13:12:56;;;;;;;12.55;5.70;;;;;;;25.57;45.56;101690.03;4861946;29;20061;-79
2023/10/10 13:15:29;;;;;;;15.15;5.88;;;;;;;25.67;45.79;101700.13;4878583;29;20400;-78
2023/10/10 13:18:19;;;;;;;10.57;5.82;;;;;;;25.50;43.84;101686.91;4876439;29;20056;-79
2023/10/10 13:20:47;;;;;;;19.88;5.63;;;;;;;25.36;45.27;101687.91;4882617;29;20508;-79
2023/10/10 13:23:20;;;;;;;13.38;6.35;;;;;;;25.28;45.28;101698.41;4880931;29;20052;-78
2023/10/10 13:25:48;;;;;;;14.75;6.20;;;;;;;25.16;47.57;101694.69;4854933;29;20041;-78
2023/10/10 13:28:17;;;;;;;16.40;6.07;;;;;;;25.10;47.54;101690.56;4863233;29;20123;-78
2023/10/10 13:30:48;;;;;;;14.88;6.43;;;;;;;25.27;48.67;101691.25;4878350;29;20114;-79
2023/10/10 13:33:20;;;;;;;13.63;5.78;;;;;;;25.35;48.70;101697.03;4869616;29;20069;-79
2023/10/10 13:35:48;;;;;;;11.30;5.97;;;;;;;25.69;48.42;101692.75;4862356;29;20083;-79
2023/10/10 13:38:14;;;;;;;15.38;5.60;;;;;;;25.58;44.82;101695.38;4877898;29;20044;-79
2023/10/10 13:40:48;;;;;;;9.98;5.13;;;;;;;25.43;43.25;101693.75;4864338;29;20036;-79
2023/10/10 13:43:18;;;;;;;10.68;5.40;;;;;;;25.44;43.68;101685.50;4873248;29;20128;-79
2023/10/10 13:45:51;;;;;;;14.18;5.25;;;;;;;25.43;45.08;101685.63;4877811;29;20076;-79
2023/10/10 13:48:23;;;;;;;11.02;5.50;;;;;;;25.76;46.19;101687.75;4877936;29;20382;-78
2023/10/10 13:50:51;;;;;;;13.25;5.80;;;;;;;25.91;44.55;101686.66;4873764;29;20461;-78
2023/10/10 13:53:17;;;;;;;9.82;5.22;;;;;;;25.90;43.57;101674.06;4877904;29;20552;-79
2023/10/10 13:55:46;;;;;;;10.15;5.20;;;;;;;25.86;41.58;101672.53;4879552;29;20056;-78
2023/10/10 13:58:13;;;;;;;11.80;5.10;;;;;;;26.06;42.34;101670.22;4862824;29;20036;-78
2023/10/10 14:00:41;;;;;;;11.43;5.40;;;;;;;26.08;43.46;101669.13;4845049;29;20457;-78
2023/10/10 14:03:07;;;;;;;10.63;5.55;;;;;;;26.23;42.96;101669.81;4877415;29;20040;-78
2023/10/10 14:05:34;;;;;;;17.92;5.18;;;;;;;26.29;45.17;101665.81;4878004;29;20056;-78
2023/10/10 14:08:07;;;;;;;13.38;5.03;;;;;;;26.53;47.69;101661.25;4885819;29;20037;-79
2023/10/10 14:10:38;;;;;;;16.13;5.63;;;;;;;26.72;43.36;101663.41;4885245;29;20040;-78
2023/10/10 14:13:18;;;;;;;11.07;5.03;;;;;;;26.97;43.48;101653.34;4880940;29;20228;-78
2023/10/10 14:16:01;;;;;;;;;;;;;;;27.15;42.90;101665.50;4889045;29;20071;-79
2023/10/10 14:18:31;;;;;;;12.52;4.78;;;;;;;27.10;41.54;101655.97;4866135;29;20181;-78
2023/10/10 14:21:07;;;;;;;16.83;4.80;;;;;;;27.09;40.18;101660.53;4877354;29;20434;-78
2023/10/10 14:23:35;;;;;;;11.35;5.05;;;;;;;26.81;40.98;101653.69;4875032;29;20373;-78